Terminal Aerodrome Forecast
Issued by NWS Wilmington, OH

Current Version | Previous Version | Graphics & Text | Print | Product List | Glossary On
Versions: 1 2 3 4 5 6 7 8 9 10 11 12 13 14 15 16
000
FTUS41 KILN 232326
TAFCMH
TAF
KCMH 232326Z 2400/2424 VRB03KT P6SM FEW060
     FM240100 00000KT P6SM SKC
     FM241600 23008KT P6SM FEW040=

USA.gov is the U.S. government's official web portal to all federal, state and local government web resources and services.